Time;durP1;ratioP1;P1;durP2;ratioP2;P2;SDS_P1;SDS_P2;PMS_P1;PMS_P2;Temp;Humidity;BMP_temperature;BMP_pressure;BME280_temperature;BME280_humidity;BME280_pressure;Samples;Min_cycle;Max_cycle;Signal;HPM_P1;HPM_P2
2021/06/23 00:01:58;;;;;;;10.87;5.70;;;18.50;97.80;;;;;;5074137;28;20444;-51
2021/06/23 00:04:24;;;;;;;7.90;5.27;;;18.60;97.80;;;;;;5074424;28;20434;-51
2021/06/23 00:06:52;;;;;;;11.07;5.70;;;18.60;97.90;;;;;;5074379;28;20444;-50
2021/06/23 00:09:19;;;;;;;8.40;5.70;;;18.60;98.10;;;;;;5073880;28;20485;-50
2021/06/23 00:11:49;;;;;;;8.23;5.10;;;18.50;98.10;;;;;;5074116;28;20439;-51
2021/06/23 00:14:17;;;;;;;7.23;5.40;;;18.40;98.10;;;;;;5074162;28;20452;-50
2021/06/23 00:16:44;;;;;;;7.40;5.47;;;18.50;98.20;;;;;;5074143;28;20434;-51
2021/06/23 00:19:11;;;;;;;6.50;4.90;;;18.50;98.30;;;;;;5055825;28;20474;-51
2021/06/23 00:21:38;;;;;;;7.83;5.17;;;18.50;98.40;;;;;;5074176;28;21089;-51
2021/06/23 00:24:07;;;;;;;8.63;5.77;;;18.40;98.50;;;;;;5073853;28;20834;-52
2021/06/23 00:26:34;;;;;;;9.13;5.40;;;18.40;98.60;;;;;;5073859;28;20451;-50
2021/06/23 00:29:01;;;;;;;7.77;4.80;;;18.60;98.80;;;;;;5073777;28;20435;-51
2021/06/23 00:31:28;;;;;;;7.50;5.33;;;18.40;98.80;;;;;;5073963;28;20485;-52
2021/06/23 00:33:57;;;;;;;7.47;5.97;;;18.40;98.90;;;;;;5074033;28;20947;-50
2021/06/23 00:36:23;;;;;;;10.23;5.87;;;18.40;98.90;;;;;;5074229;28;20469;-51
2021/06/23 00:38:50;;;;;;;10.30;6.40;;;18.40;99.10;;;;;;5073532;28;20843;-50
2021/06/23 00:41:19;;;;;;;11.90;5.93;;;18.30;99.10;;;;;;5073679;28;20431;-49
2021/06/23 00:43:48;;;;;;;13.20;6.90;;;18.30;99.10;;;;;;5055691;28;20491;-51
2021/06/23 00:46:16;;;;;;;7.20;5.83;;;18.50;99.30;;;;;;5055818;28;21010;-50
2021/06/23 00:48:43;;;;;;;6.60;5.63;;;18.30;99.30;;;;;;5073136;28;20467;-50
2021/06/23 00:51:14;;;;;;;10.50;6.07;;;18.10;99.30;;;;;;5055462;28;20460;-51
2021/06/23 00:53:59;;;;;;;8.00;6.37;;;17.80;99.30;;;;;;5073917;28;20574;-50
2021/06/23 00:56:32;;;;;;;10.47;5.90;;;18.30;99.70;;;;;;5055448;28;20470;-51
2021/06/23 00:58:59;;;;;;;10.00;6.10;;;18.30;99.80;;;;;;5067740;22;20569;-54
2021/06/23 01:01:27;;;;;;;9.30;6.80;;;17.70;99.60;;;;;;5031341;28;20458;-54
2021/06/23 01:03:54;;;;;;;9.27;6.00;;;18.30;99.90;;;;;;5032436;28;20471;-53
2021/06/23 01:06:21;;;;;;;9.83;6.37;;;18.20;99.90;;;;;;5030960;28;20461;-53
2021/06/23 01:08:48;;;;;;;12.00;7.67;;;18.20;99.90;;;;;;5031848;28;20454;-54
2021/06/23 01:11:16;;;;;;;8.37;6.83;;;18.10;99.90;;;;;;5030568;28;20817;-53
2021/06/23 01:13:57;;;;;;;8.90;6.67;;;18.20;99.90;;;;;;5032400;28;20467;-53
2021/06/23 01:16:25;;;;;;;8.13;6.20;;;18.10;99.90;;;;;;5032148;28;20433;-53
2021/06/23 01:18:52;;;;;;;8.23;6.90;;;18.10;99.90;;;;;;5030234;28;20513;-52
2021/06/23 01:21:19;;;;;;;10.73;7.40;;;18.10;99.90;;;;;;5032390;28;20422;-54
2021/06/23 01:23:49;;;;;;;7.90;7.10;;;18.30;99.90;;;;;;5030605;28;21070;-54
2021/06/23 01:26:16;;;;;;;10.60;6.70;;;18.50;99.90;;;;;;5032180;28;20438;-52
2021/06/23 01:28:47;;;;;;;12.73;6.97;;;18.20;99.90;;;;;;5031578;28;20473;-53
2021/06/23 01:31:18;;;;;;;7.87;6.30;;;18.50;99.90;;;;;;5031672;28;20432;-52
2021/06/23 01:33:48;;;;;;;9.10;7.23;;;18.00;99.90;;;;;;5030441;28;20462;-53
2021/06/23 01:36:15;;;;;;;7.77;6.40;;;18.00;99.90;;;;;;5030503;28;20453;-54
2021/06/23 01:38:42;;;;;;;9.83;7.00;;;18.00;99.90;;;;;;5030051;28;20519;-53
2021/06/23 01:41:12;;;;;;;10.30;7.00;;;18.20;99.90;;;;;;5030476;28;20441;-53
2021/06/23 01:43:39;;;;;;;10.90;7.50;;;17.90;99.90;;;;;;5031552;28;21003;-54
2021/06/23 01:46:07;;;;;;;8.27;7.27;;;18.20;99.90;;;;;;5031806;28;20429;-54
2021/06/23 01:48:34;;;;;;;11.67;7.83;;;18.20;99.90;;;;;;5031275;28;20461;-53
2021/06/23 01:51:02;;;;;;;11.60;7.33;;;17.90;99.90;;;;;;5031811;28;20533;-53
2021/06/23 01:53:39;;;;;;;10.30;7.60;;;17.90;99.90;;;;;;5030355;28;20880;-53
2021/06/23 01:56:07;;;;;;;9.50;6.70;;;17.90;99.90;;;;;;5030159;28;20488;-53
2021/06/23 01:58:39;;;;;;;9.70;7.70;;;17.80;99.90;;;;;;5030967;28;20920;-54
2021/06/23 02:01:27;;;;;;;10.00;6.77;;;17.80;99.90;;;;;;5029960;28;20442;-53
2021/06/23 02:04:07;;;;;;;9.17;7.70;;;17.90;99.90;;;;;;5029800;28;20554;-53
2021/06/23 02:06:58;;;;;;;7.60;6.63;;;17.80;99.90;;;;;;5029986;28;20485;-53
2021/06/23 02:09:44;;;;;;;9.70;6.97;;;17.80;99.90;;;;;;5029697;28;20475;-54
2021/06/23 02:12:36;;;;;;;8.87;6.63;;;17.50;99.90;;;;;;5029854;28;20449;-53
2021/06/23 02:15:09;;;;;;;8.93;6.90;;;17.80;99.90;;;;;;5029838;28;20461;-54
2021/06/23 02:18:07;;;;;;;9.57;7.40;;;17.70;99.90;;;;;;5029472;28;21077;-54
2021/06/23 02:20:54;;;;;;;7.80;6.20;;;17.80;99.90;;;;;;5030954;28;20555;-53
2021/06/23 02:23:24;;;;;;;9.40;6.20;;;17.60;99.90;;;;;;5028968;28;20503;-53
2021/06/23 02:25:53;;;;;;;7.73;6.40;;;17.50;99.90;;;;;;5029590;28;20448;-54
2021/06/23 02:28:21;;;;;;;9.33;6.13;;;18.00;99.90;;;;;;5030417;28;20453;-54
2021/06/23 02:30:50;;;;;;;8.37;6.60;;;17.60;99.90;;;;;;5029667;28;20446;-54
2021/06/23 02:33:18;;;;;;;11.80;6.30;;;18.10;99.90;;;;;;5030469;28;20447;-52
2021/06/23 02:35:50;;;;;;;8.67;6.77;;;17.40;99.90;;;;;;5028418;28;20457;-54
2021/06/23 02:38:25;;;;;;;8.67;6.80;;;17.90;99.90;;;;;;5028694;28;20480;-54
2021/06/23 02:40:54;;;;;;;9.10;6.73;;;17.90;99.90;;;;;;5029588;28;20483;-54
2021/06/23 02:43:21;;;;;;;9.43;6.37;;;17.90;99.90;;;;;;5029322;28;20569;-53
2021/06/23 02:45:50;;;;;;;6.80;6.17;;;17.90;99.90;;;;;;5029531;28;20518;-54
2021/06/23 02:48:20;;;;;;;9.60;6.20;;;17.90;99.90;;;;;;5028915;28;20536;-53
2021/06/23 02:51:13;;;;;;;11.30;6.47;;;17.50;99.90;;;;;;5030187;28;20499;-54
2021/06/23 02:53:41;;;;;;;8.47;6.27;;;17.90;99.90;;;;;;5029236;28;20460;-54
2021/06/23 02:56:08;;;;;;;7.33;6.10;;;17.90;99.90;;;;;;5031221;28;20816;-53
2021/06/23 02:58:49;;;;;;;10.77;6.63;;;17.90;99.90;;;;;;5030180;28;20480;-54
2021/06/23 03:01:18;;;;;;;6.40;5.80;;;18.10;99.90;;;;;;5029321;28;20545;-54
2021/06/23 03:03:49;;;;;;;7.50;6.30;;;18.20;99.90;;;;;;5030822;28;20472;-54
2021/06/23 03:06:18;;;;;;;9.23;6.00;;;18.00;99.90;;;;;;5031015;28;20453;-53
2021/06/23 03:08:47;;;;;;;11.53;7.07;;;17.60;99.90;;;;;;5029572;28;21042;-54
2021/06/23 03:11:23;;;;;;;10.03;6.50;;;18.10;99.90;;;;;;5029452;28;20464;-53
2021/06/23 03:14:12;;;;;;;7.60;6.20;;;18.10;99.90;;;;;;5022294;28;20797;-54
2021/06/23 03:16:50;;;;;;;13.47;6.43;;;18.30;99.90;;;;;;5029110;28;20947;-54
2021/06/23 03:19:16;;;;;;;8.43;5.60;;;18.10;99.90;;;;;;5030021;28;20555;-53
2021/06/23 03:21:44;;;;;;;7.30;6.30;;;18.30;99.90;;;;;;5028856;28;20453;-54
2021/06/23 03:24:12;;;;;;;6.30;5.50;;;18.20;99.90;;;;;;5028822;28;20516;-54
2021/06/23 03:26:40;;;;;;;10.57;6.50;;;18.40;99.90;;;;;;5029073;28;20481;-55
2021/06/23 03:29:25;;;;;;;6.47;5.20;;;18.60;99.90;;;;;;5028304;28;20855;-54
2021/06/23 03:31:53;;;;;;;10.53;5.27;;;18.50;99.90;;;;;;5030343;28;20500;-55
2021/06/23 03:34:23;;;;;;;9.90;7.40;;;18.30;99.90;;;;;;5030243;28;20445;-54
2021/06/23 03:36:59;;;;;;;11.87;5.47;;;18.80;99.90;;;;;;5032573;28;20489;-54
2021/06/23 03:39:26;;;;;;;11.57;6.30;;;18.90;99.90;;;;;;5032110;28;20481;-55
2021/06/23 03:41:59;;;;;;;6.93;5.70;;;18.00;99.90;;;;;;5032761;28;20507;-54
2021/06/23 03:44:26;;;;;;;8.47;5.90;;;18.40;99.90;;;;;;5032514;28;20476;-55
2021/06/23 03:47:16;;;;;;;5.40;4.90;;;18.40;99.90;;;;;;5033930;28;20529;-53
2021/06/23 03:49:45;;;;;;;8.53;5.13;;;18.40;99.90;;;;;;5031846;28;20504;-54
2021/06/23 03:52:12;;;;;;;10.80;5.37;;;18.40;99.90;;;;;;5033680;28;20476;-55
2021/06/23 03:54:38;;;;;;;7.27;5.83;;;18.30;99.90;;;;;;5032479;28;20450;-55
2021/06/23 03:57:05;;;;;;;10.83;5.70;;;18.40;99.90;;;;;;5033759;28;20505;-54
2021/06/23 03:59:35;;;;;;;8.50;6.07;;;18.50;99.90;;;;;;5033087;28;20463;-53
2021/06/23 04:02:03;;;;;;;6.47;5.23;;;18.30;99.90;;;;;;5032266;28;20819;-55
2021/06/23 04:04:31;;;;;;;8.67;5.63;;;18.50;99.90;;;;;;5032270;28;20491;-55
2021/06/23 04:07:07;;;;;;;10.03;5.67;;;17.90;99.80;;;;;;5033311;28;20937;-54
2021/06/23 04:09:34;;;;;;;10.83;5.43;;;18.30;99.90;;;;;;5031482;28;20470;-55
2021/06/23 04:12:05;;;;;;;5.70;4.90;;;18.20;99.90;;;;;;5031715;28;20939;-54
2021/06/23 04:14:44;;;;;;;7.23;6.47;;;18.30;99.90;;;;;;5032185;28;20824;-55
2021/06/23 04:17:11;;;;;;;9.30;5.60;;;18.40;99.90;;;;;;5031984;28;20464;-55
2021/06/23 04:19:39;;;;;;;7.13;5.40;;;18.50;99.80;;;;;;5032630;28;20500;-54
2021/06/23 04:22:10;;;;;;;8.63;6.83;;;18.50;99.60;;;;;;5033475;28;20449;-54
2021/06/23 04:24:36;;;;;;;7.07;5.57;;;18.70;99.50;;;;;;5033284;28;20842;-55
2021/06/23 04:27:05;;;;;;;6.83;5.07;;;19.00;99.40;;;;;;5031757;28;20450;-55
2021/06/23 04:29:35;;;;;;;8.77;6.50;;;18.90;99.00;;;;;;5031171;28;20474;-54
2021/06/23 04:32:03;;;;;;;5.60;5.10;;;19.20;98.20;;;;;;5031505;28;20746;-56
2021/06/23 04:34:31;;;;;;;5.73;4.70;;;19.20;98.60;;;;;;5031699;28;20456;-56
2021/06/23 04:37:14;;;;;;;9.57;5.73;;;19.20;98.30;;;;;;5031462;28;20824;-55
2021/06/23 04:39:40;;;;;;;11.23;6.00;;;19.50;98.10;;;;;;5032958;28;20805;-55
2021/06/23 04:42:10;;;;;;;9.73;6.20;;;19.90;98.10;;;;;;5032692;28;20480;-55
2021/06/23 04:44:40;;;;;;;11.80;7.07;;;19.70;97.60;;;;;;5032512;28;20525;-54
2021/06/23 04:47:07;;;;;;;13.83;7.50;;;19.80;97.50;;;;;;5030997;28;20455;-54
2021/06/23 04:49:33;;;;;;;5.70;5.17;;;20.10;97.40;;;;;;5033138;28;20472;-55
2021/06/23 04:52:24;;;;;;;6.20;4.80;;;19.70;96.80;;;;;;5024956;28;20455;-55
2021/06/23 04:54:51;;;;;;;6.33;5.60;;;20.20;97.20;;;;;;5031187;28;20533;-55
2021/06/23 04:57:18;;;;;;;12.73;6.00;;;19.90;96.90;;;;;;5031059;28;20497;-55
2021/06/23 04:59:45;;;;;;;7.30;5.30;;;19.80;96.80;;;;;;5031755;28;20490;-55
2021/06/23 05:02:13;;;;;;;5.87;5.37;;;20.10;96.80;;;;;;5032490;28;20486;-55
2021/06/23 05:04:43;;;;;;;8.13;5.43;;;20.10;96.70;;;;;;5032311;28;20474;-55
2021/06/23 05:07:10;;;;;;;8.20;6.23;;;20.60;96.80;;;;;;5032154;28;20436;-54
2021/06/23 05:09:39;;;;;;;6.50;4.80;;;20.30;96.50;;;;;;5031765;28;20530;-53
2021/06/23 05:12:07;;;;;;;9.93;6.20;;;20.40;96.40;;;;;;5031774;28;20540;-53
2021/06/23 05:14:34;;;;;;;8.30;6.10;;;20.50;96.20;;;;;;5031474;28;20514;-55
2021/06/23 05:17:01;;;;;;;6.97;4.50;;;20.40;96.00;;;;;;5031583;28;20443;-53
2021/06/23 05:19:28;;;;;;;10.33;5.97;;;20.60;96.00;;;;;;5031268;28;20517;-55
2021/06/23 05:21:54;;;;;;;5.23;4.77;;;20.60;95.90;;;;;;5031467;28;20530;-55
2021/06/23 05:24:21;;;;;;;9.03;6.13;;;20.60;95.90;;;;;;5030848;28;20569;-53
2021/06/23 05:26:49;;;;;;;6.67;5.50;;;20.90;96.00;;;;;;5031505;28;20431;-55
2021/06/23 05:29:16;;;;;;;9.93;5.43;;;20.60;95.70;;;;;;5030852;28;20470;-54
2021/06/23 05:31:42;;;;;;;9.60;4.90;;;20.90;95.60;;;;;;5031615;28;20730;-54
2021/06/23 05:34:09;;;;;;;6.93;5.10;;;20.90;95.60;;;;;;5031505;28;20437;-54
2021/06/23 05:36:36;;;;;;;9.03;5.10;;;21.00;95.30;;;;;;5031588;28;20451;-54
2021/06/23 05:39:02;;;;;;;10.20;6.27;;;21.40;95.30;;;;;;5030890;28;20977;-55
2021/06/23 05:41:29;;;;;;;8.40;5.07;;;20.80;94.90;;;;;;5029660;28;20453;-54
2021/06/23 05:43:57;;;;;;;8.13;5.27;;;21.20;95.00;;;;;;5031108;28;20469;-55
2021/06/23 05:46:24;;;;;;;12.57;5.97;;;21.30;94.60;;;;;;5031090;28;20445;-55
2021/06/23 05:48:50;;;;;;;13.13;5.33;;;21.40;94.50;;;;;;5029113;28;20481;-56
2021/06/23 05:51:17;;;;;;;6.80;5.40;;;21.50;94.20;;;;;;5031146;28;20454;-54
2021/06/23 05:53:44;;;;;;;9.67;5.60;;;21.70;94.10;;;;;;5030504;28;20467;-55
2021/06/23 05:56:10;;;;;;;12.03;5.80;;;21.60;93.90;;;;;;5031106;28;20967;-55
2021/06/23 05:58:37;;;;;;;11.80;4.90;;;22.00;94.10;;;;;;5029537;28;20773;-55
2021/06/23 06:01:06;;;;;;;6.63;4.77;;;21.60;93.80;;;;;;5028992;28;20481;-54
2021/06/23 06:03:33;;;;;;;7.30;4.93;;;21.50;93.20;;;;;;5030655;28;20446;-56
2021/06/23 06:06:00;;;;;;;8.87;4.93;;;21.40;93.10;;;;;;5030490;28;20489;-55
2021/06/23 06:08:26;;;;;;;9.80;4.90;;;21.40;93.50;;;;;;5030139;28;20474;-54
2021/06/23 06:10:54;;;;;;;7.03;4.50;;;21.30;93.20;;;;;;5030522;28;20480;-56
2021/06/23 06:13:20;;;;;;;6.73;5.27;;;21.50;93.40;;;;;;5030729;28;20460;-56
2021/06/23 06:15:47;;;;;;;14.07;4.50;;;21.20;93.20;;;;;;5030824;28;20962;-55
2021/06/23 06:18:15;;;;;;;8.80;4.63;;;21.10;93.20;;;;;;5030179;28;20448;-54
2021/06/23 06:20:42;;;;;;;7.13;5.00;;;21.20;93.30;;;;;;5030498;28;20429;-53
2021/06/23 06:23:09;;;;;;;15.90;5.03;;;20.80;93.10;;;;;;5030681;28;20439;-54
2021/06/23 06:25:36;;;;;;;8.63;4.33;;;21.20;93.30;;;;;;5030599;28;20494;-54
2021/06/23 06:28:03;;;;;;;9.43;5.00;;;21.50;93.30;;;;;;5030279;28;20443;-55
2021/06/23 06:30:30;;;;;;;9.93;5.23;;;21.10;93.10;;;;;;5030473;28;20446;-52
2021/06/23 06:32:57;;;;;;;10.50;4.40;;;21.10;93.30;;;;;;5030481;28;20445;-55
2021/06/23 06:35:25;;;;;;;8.90;4.30;;;21.10;93.30;;;;;;5030416;28;20941;-55
2021/06/23 06:37:52;;;;;;;10.93;4.10;;;21.20;93.30;;;;;;5030691;28;20436;-54
2021/06/23 06:40:19;;;;;;;11.73;4.23;;;21.20;93.30;;;;;;5030158;28;20449;-55
2021/06/23 06:42:46;;;;;;;8.60;4.90;;;21.30;93.20;;;;;;5030512;28;20439;-56
2021/06/23 06:45:13;;;;;;;11.20;4.30;;;21.40;93.10;;;;;;5030028;28;20505;-55
2021/06/23 06:47:40;;;;;;;9.20;4.10;;;21.50;92.80;;;;;;5029268;28;21059;-56
2021/06/23 06:50:07;;;;;;;12.73;4.40;;;21.90;92.60;;;;;;5030422;28;20461;-53
2021/06/23 06:52:35;;;;;;;11.57;4.80;;;21.40;92.30;;;;;;5030360;28;20451;-55
2021/06/23 06:55:03;;;;;;;8.40;4.23;;;21.70;92.20;;;;;;5029319;28;20875;-55
2021/06/23 06:57:29;;;;;;;8.03;4.23;;;21.70;92.10;;;;;;5030257;28;20544;-55
2021/06/23 06:59:56;;;;;;;13.60;4.43;;;21.80;92.10;;;;;;5056674;22;20500;-51
2021/06/23 07:02:23;;;;;;;14.30;4.63;;;21.80;92.00;;;;;;5032649;28;20456;-51
2021/06/23 07:04:49;;;;;;;8.67;3.93;;;22.00;92.00;;;;;;5051115;28;20476;-50
2021/06/23 07:07:16;;;;;;;8.90;4.60;;;22.10;91.80;;;;;;5050678;28;20537;-50
2021/06/23 07:09:44;;;;;;;9.10;4.43;;;22.10;91.40;;;;;;5052445;28;21032;-50
2021/06/23 07:12:11;;;;;;;10.10;4.50;;;22.20;91.20;;;;;;5037330;28;20809;-52
2021/06/23 07:14:38;;;;;;;8.67;4.83;;;22.20;91.10;;;;;;5055117;28;20551;-49
2021/06/23 07:17:05;;;;;;;7.00;3.97;;;22.20;91.30;;;;;;5054945;28;20452;-50
2021/06/23 07:19:31;;;;;;;9.37;4.27;;;22.20;91.20;;;;;;5054388;28;20458;-50
2021/06/23 07:21:58;;;;;;;12.53;5.07;;;22.20;91.10;;;;;;5054894;28;20432;-50
2021/06/23 07:24:24;;;;;;;11.47;3.93;;;22.30;91.00;;;;;;5054716;28;20481;-51
2021/06/23 07:26:57;;;;;;;9.40;4.10;;;22.30;90.80;;;;;;5054596;28;20545;-51
2021/06/23 07:29:24;;;;;;;11.43;4.80;;;22.40;90.70;;;;;;5054039;28;20532;-51
2021/06/23 07:31:55;;;;;;;11.00;4.77;;;22.50;90.70;;;;;;5054425;28;20441;-51
2021/06/23 07:36:30;;;;;;;8.17;4.27;;;22.60;90.50;;;;;;5054642;28;20475;-51
2021/06/23 07:37:20;;;;;;;9.80;4.43;;;22.60;90.50;;;;;;5054540;28;20484;-51
2021/06/23 07:39:47;;;;;;;9.57;4.50;;;22.50;90.10;;;;;;5054344;28;20462;-51
2021/06/23 07:42:15;;;;;;;23.87;6.27;;;22.80;90.10;;;;;;5054209;28;20439;-50
2021/06/23 07:44:44;;;;;;;8.90;4.17;;;22.90;89.60;;;;;;5053744;28;20482;-50
2021/06/23 07:47:14;;;;;;;7.00;4.20;;;22.90;89.20;;;;;;5054499;28;20567;-51
2021/06/23 07:49:42;;;;;;;10.13;4.03;;;22.90;88.90;;;;;;5054079;28;20540;-49
2021/06/23 07:52:13;;;;;;;4.40;3.50;;;23.00;88.90;;;;;;5054289;28;20843;-51
2021/06/23 07:54:50;;;;;;;9.17;4.63;;;23.00;88.60;;;;;;5053932;28;20827;-51
2021/06/23 08:03:12;;;;;;;8.30;4.17;;;23.00;87.00;;;;;;5054270;28;20485;-50
2021/06/23 08:08:36;;;;;;;9.60;4.07;;;23.10;86.70;;;;;;5022046;28;20946;-51
2021/06/23 08:11:15;;;;;;;10.53;4.00;;;23.10;86.00;;;;;;5054066;28;20473;-51
2021/06/23 08:13:43;;;;;;;9.33;3.80;;;23.20;86.20;;;;;;5053858;28;20862;-52
2021/06/23 08:16:10;;;;;;;9.03;4.30;;;23.20;86.10;;;;;;5053696;28;20904;-52
2021/06/23 08:18:36;;;;;;;10.80;3.27;;;23.20;85.80;;;;;;5053719;28;20444;-51
2021/06/23 08:21:03;;;;;;;8.07;4.20;;;23.20;85.60;;;;;;5052268;28;20443;-51
2021/06/23 08:23:30;;;;;;;9.70;4.20;;;23.20;84.50;;;;;;5053422;28;20438;-51
2021/06/23 08:25:56;;;;;;;9.37;4.23;;;23.10;83.90;;;;;;5053249;28;20479;-51
2021/06/23 08:28:23;;;;;;;10.50;3.27;;;23.40;84.00;;;;;;5034715;28;20952;-50
2021/06/23 08:30:52;;;;;;;9.50;4.00;;;23.00;82.30;;;;;;5053147;28;20438;-50
2021/06/23 08:33:18;;;;;;;6.90;3.87;;;23.00;81.60;;;;;;5053572;28;21045;-51
2021/06/23 08:35:45;;;;;;;18.47;11.63;;;23.00;81.80;;;;;;5053349;28;20431;-50
2021/06/23 08:38:11;;;;;;;5.83;3.87;;;23.20;81.70;;;;;;5052837;28;20435;-50
2021/06/23 08:40:39;;;;;;;9.47;3.80;;;23.20;79.90;;;;;;5052836;28;20954;-50
2021/06/23 08:43:05;;;;;;;6.63;3.23;;;23.30;79.60;;;;;;5052320;28;20942;-51
2021/06/23 08:45:32;;;;;;;7.80;4.00;;;23.40;79.30;;;;;;5052914;28;20846;-51
2021/06/23 08:48:03;;;;;;;9.13;3.53;;;23.30;78.00;;;;;;5053525;28;20427;-49
2021/06/23 08:50:30;;;;;;;7.20;3.87;;;23.30;77.90;;;;;;5053971;28;20805;-50
2021/06/23 08:52:56;;;;;;;10.40;3.80;;;23.40;78.30;;;;;;5053324;28;20937;-50
2021/06/23 08:55:23;;;;;;;8.50;3.83;;;23.40;77.50;;;;;;5053285;28;20438;-50
2021/06/23 08:57:51;;;;;;;5.63;3.53;;;23.40;78.00;;;;;;5052778;28;20432;-50
2021/06/23 09:00:20;;;;;;;6.73;3.67;;;23.30;78.00;;;;;;5052400;28;20473;-50
2021/06/23 09:02:47;;;;;;;10.63;3.93;;;23.40;78.30;;;;;;5052813;28;20450;-50
2021/06/23 09:05:17;;;;;;;12.33;4.20;;;23.50;78.20;;;;;;5052811;28;20481;-50
2021/06/23 09:07:45;;;;;;;9.90;4.37;;;23.60;78.30;;;;;;5052965;28;20527;-51
2021/06/23 09:10:37;;;;;;;5.67;3.40;;;23.30;77.90;;;;;;5051988;28;20465;-50
2021/06/23 09:13:18;;;;;;;6.30;3.17;;;23.40;77.20;;;;;;5052686;28;20518;-50
2021/06/23 09:15:47;;;;;;;9.90;4.30;;;23.40;78.10;;;;;;5053068;28;20517;-50
2021/06/23 09:18:16;;;;;;;6.57;3.97;;;23.50;78.00;;;;;;5051862;28;20484;-50
2021/06/23 09:20:45;;;;;;;8.33;4.10;;;23.50;77.90;;;;;;5052181;28;21003;-50
2021/06/23 09:23:12;;;;;;;9.13;3.27;;;23.50;77.20;;;;;;5052246;28;20794;-49
2021/06/23 09:25:44;;;;;;;11.73;4.10;;;23.60;77.00;;;;;;5052276;28;20477;-50
2021/06/23 09:28:15;;;;;;;12.50;4.10;;;23.70;76.70;;;;;;5052169;28;20853;-50
2021/06/23 09:30:43;;;;;;;6.50;3.43;;;23.70;76.70;;;;;;5052395;28;20466;-51
2021/06/23 09:33:20;;;;;;;10.63;3.57;;;23.70;76.50;;;;;;5052017;28;20788;-51
2021/06/23 09:35:58;;;;;;;8.37;3.33;;;23.70;76.50;;;;;;5052013;28;20532;-50
2021/06/23 09:38:36;;;;;;;9.93;4.00;;;23.60;77.00;;;;;;5051435;28;20779;-50
2021/06/23 09:41:03;;;;;;;7.30;4.40;;;23.30;77.00;;;;;;5052434;28;20574;-51
2021/06/23 09:43:38;;;;;;;6.80;3.60;;;23.30;77.20;;;;;;5051777;28;20432;-51
2021/06/23 09:46:20;;;;;;;13.20;4.63;;;23.50;77.40;;;;;;5051917;28;20479;-51
2021/06/23 09:48:47;;;;;;;9.03;4.93;;;23.40;77.00;;;;;;5051671;28;20982;-51
2021/06/23 09:51:18;;;;;;;8.60;4.73;;;23.50;76.20;;;;;;5052233;28;20874;-51
2021/06/23 09:53:45;;;;;;;7.67;3.87;;;23.70;75.30;;;;;;5051679;28;20490;-50
2021/06/23 09:56:38;;;;;;;4.53;2.93;;;23.90;74.50;;;;;;5051955;28;20432;-50
2021/06/23 09:59:16;;;;;;;9.97;3.90;;;24.10;72.40;;;;;;5050561;28;20516;-50
2021/06/23 10:01:43;;;;;;;11.93;4.13;;;24.20;73.00;;;;;;5051433;28;20436;-51
2021/06/23 10:04:10;;;;;;;8.67;5.00;;;24.30;73.00;;;;;;5050979;28;20437;-51
2021/06/23 10:06:42;;;;;;;11.63;5.43;;;24.30;72.90;;;;;;5051457;28;20485;-50
2021/06/23 10:09:20;;;;;;;8.37;3.60;;;24.40;72.20;;;;;;5051315;28;20453;-51
2021/06/23 10:11:48;;;;;;;6.83;4.20;;;24.40;72.10;;;;;;5051287;28;20516;-51
2021/06/23 10:14:15;;;;;;;11.80;4.90;;;24.40;72.80;;;;;;5051112;28;20442;-51
2021/06/23 10:16:43;;;;;;;8.70;4.30;;;24.30;71.60;;;;;;5050792;28;20438;-54
2021/06/23 10:19:10;;;;;;;9.00;4.07;;;24.30;71.70;;;;;;5032597;28;20583;-50
2021/06/23 10:21:39;;;;;;;8.47;4.30;;;24.20;71.40;;;;;;5051341;28;20446;-49
2021/06/23 10:24:10;;;;;;;8.77;4.40;;;24.30;71.70;;;;;;5051707;28;20529;-51
2021/06/23 10:26:39;;;;;;;6.87;4.33;;;24.40;71.30;;;;;;5051199;28;20490;-51
2021/06/23 10:29:08;;;;;;;7.00;4.17;;;24.40;72.00;;;;;;5051135;28;20465;-51
2021/06/23 10:31:35;;;;;;;11.03;4.00;;;24.50;71.30;;;;;;5051220;28;20434;-49
2021/06/23 10:34:03;;;;;;;9.60;4.30;;;24.50;70.70;;;;;;5051408;28;20930;-50
2021/06/23 10:36:29;;;;;;;11.27;4.83;;;24.50;70.60;;;;;;5051050;28;20442;-50
2021/06/23 10:38:58;;;;;;;7.13;4.33;;;24.80;70.70;;;;;;5050533;28;20462;-51
2021/06/23 10:41:25;;;;;;;8.40;4.50;;;24.80;70.30;;;;;;5051214;28;20536;-51
2021/06/23 10:44:15;;;;;;;9.57;4.80;;;24.80;71.10;;;;;;5050563;28;20435;-50
2021/06/23 10:46:42;;;;;;;8.70;4.70;;;24.50;70.10;;;;;;5050651;28;20543;-51
2021/06/23 10:49:10;;;;;;;7.17;4.50;;;24.80;70.50;;;;;;5050932;28;20779;-51
2021/06/23 10:51:40;;;;;;;8.73;4.13;;;24.50;70.10;;;;;;5050819;28;20426;-51
2021/06/23 10:54:40;;;;;;;7.97;4.27;;;24.70;70.20;;;;;;5051152;28;20430;-52
2021/06/23 10:57:26;;;;;;;9.13;3.70;;;24.50;70.00;;;;;;5050912;28;20431;-51
2021/06/23 10:59:54;;;;;;;8.50;4.23;;;24.40;70.70;;;;;;5032242;28;20485;-52
2021/06/23 11:02:30;;;;;;;7.30;4.50;;;24.30;70.90;;;;;;5051247;28;21006;-51
2021/06/23 11:05:08;;;;;;;9.13;4.57;;;24.30;71.00;;;;;;5050774;28;20442;-52
2021/06/23 11:07:37;;;;;;;8.73;4.13;;;24.30;70.80;;;;;;5050519;28;20429;-52
2021/06/23 11:10:40;;;;;;;10.43;4.97;;;24.20;71.00;;;;;;5050543;28;20454;-50
2021/06/23 11:13:08;;;;;;;10.77;4.33;;;24.20;71.20;;;;;;4969823;28;20522;-50
2021/06/23 11:15:38;;;;;;;6.07;4.17;;;24.10;71.60;;;;;;5035596;28;20474;-50
2021/06/23 11:18:24;;;;;;;13.90;5.53;;;24.00;71.80;;;;;;5050644;28;20434;-51
2021/06/23 11:20:53;;;;;;;7.10;4.40;;;24.00;72.20;;;;;;5050897;28;20452;-51
2021/06/23 11:23:57;;;;;;;10.63;4.90;;;24.00;73.20;;;;;;5050476;28;20450;-51
2021/06/23 11:26:49;;;;;;;8.23;4.60;;;23.90;73.50;;;;;;5032560;28;20473;-51
2021/06/23 11:29:36;;;;;;;7.90;4.90;;;23.80;73.20;;;;;;5050359;28;20514;-50
2021/06/23 11:32:10;;;;;;;9.30;5.10;;;23.80;74.40;;;;;;5050711;28;20474;-50
2021/06/23 11:37:37;;;;;;;7.40;4.27;;;23.70;74.50;;;;;;5050204;28;20436;-50
2021/06/23 11:40:19;;;;;;;8.57;3.90;;;23.60;75.00;;;;;;5050227;28;20482;-50
2021/06/23 11:42:48;;;;;;;8.70;3.97;;;23.60;76.20;;;;;;5050804;28;20444;-50
2021/06/23 11:45:17;;;;;;;9.43;4.80;;;23.50;77.70;;;;;;5050871;28;20854;-50
2021/06/23 11:47:44;;;;;;;8.47;4.40;;;23.40;79.40;;;;;;5049859;28;20479;-50
2021/06/23 11:50:11;;;;;;;13.97;7.47;;;23.30;80.10;;;;;;5049700;28;20775;-51
2021/06/23 11:52:39;;;;;;;10.93;4.90;;;23.30;80.60;;;;;;5050341;28;20931;-51
2021/06/23 11:55:09;;;;;;;6.50;4.80;;;23.30;80.30;;;;;;5049609;28;20462;-50
2021/06/23 11:57:35;;;;;;;10.73;5.10;;;23.30;79.00;;;;;;5053106;28;20432;-51
2021/06/23 12:00:05;;;;;;;9.47;4.70;;;23.30;77.90;;;;;;5053202;28;20485;-50
2021/06/23 12:02:31;;;;;;;9.83;5.10;;;23.40;77.50;;;;;;5053595;28;20505;-51
2021/06/23 12:04:58;;;;;;;16.17;4.60;;;23.40;76.70;;;;;;5053927;28;20527;-51
2021/06/23 12:07:25;;;;;;;7.67;4.13;;;23.40;76.60;;;;;;5054066;28;20489;-51
2021/06/23 12:09:52;;;;;;;6.13;4.60;;;23.00;76.10;;;;;;5053439;28;20597;-51
2021/06/23 12:12:18;;;;;;;10.20;5.00;;;23.40;76.70;;;;;;5054150;28;20432;-50
2021/06/23 12:14:45;;;;;;;14.67;5.13;;;23.50;76.90;;;;;;5053893;28;20437;-51
2021/06/23 12:17:13;;;;;;;13.00;4.63;;;23.40;77.00;;;;;;5053572;28;20450;-50
2021/06/23 12:19:40;;;;;;;9.20;4.33;;;23.40;77.30;;;;;;5053618;28;20447;-51
2021/06/23 12:22:09;;;;;;;10.93;5.50;;;23.40;77.90;;;;;;5053656;28;20925;-52
2021/06/23 12:24:35;;;;;;;9.83;4.23;;;23.40;78.20;;;;;;5053507;28;20533;-50
2021/06/23 12:27:02;;;;;;;9.70;5.20;;;23.30;77.50;;;;;;5053254;28;20522;-51
2021/06/23 12:29:29;;;;;;;12.17;5.90;;;23.30;77.40;;;;;;5052740;28;20447;-51
2021/06/23 12:31:55;;;;;;;9.20;5.60;;;23.20;77.50;;;;;;5053446;28;20944;-51
2021/06/23 12:34:23;;;;;;;12.90;4.80;;;23.20;77.30;;;;;;5052820;28;20941;-50
2021/06/23 12:36:50;;;;;;;8.70;5.33;;;23.20;77.80;;;;;;5053517;28;20462;-50
2021/06/23 12:39:17;;;;;;;11.93;5.30;;;23.00;77.90;;;;;;5052989;28;20538;-51
2021/06/23 12:41:43;;;;;;;14.73;5.10;;;23.00;79.30;;;;;;5053547;28;20921;-49
2021/06/23 12:44:10;;;;;;;9.27;6.50;;;23.00;80.60;;;;;;5053600;28;20446;-49
2021/06/23 12:46:37;;;;;;;9.23;5.17;;;22.90;82.40;;;;;;5053291;28;20568;-50
2021/06/23 12:49:04;;;;;;;11.07;5.37;;;22.90;82.40;;;;;;5053011;28;21200;-50
2021/06/23 12:51:33;;;;;;;10.70;6.13;;;22.80;83.70;;;;;;5053719;28;20509;-49
2021/06/23 12:54:00;;;;;;;12.10;6.50;;;22.70;84.00;;;;;;5052617;28;20548;-51
2021/06/23 12:56:26;;;;;;;8.30;6.60;;;22.70;84.70;;;;;;5052424;28;20430;-50
2021/06/23 12:58:53;;;;;;;12.07;5.43;;;22.60;86.50;;;;;;5052459;28;21024;-48
2021/06/23 13:01:20;;;;;;;11.97;6.10;;;22.60;88.40;;;;;;5052684;28;20485;-49
2021/06/23 13:03:46;;;;;;;8.70;5.93;;;22.60;88.50;;;;;;5052820;28;20426;-49
2021/06/23 13:06:13;;;;;;;10.50;5.47;;;22.60;88.60;;;;;;5052884;28;20902;-49
2021/06/23 13:08:41;;;;;;;10.00;5.73;;;22.70;88.30;;;;;;5051990;28;20442;-48
2021/06/23 13:11:07;;;;;;;11.40;5.50;;;22.80;88.50;;;;;;5052191;28;20438;-48